Time;durP1;ratioP1;P1;durP2;ratioP2;P2;SDS_P1;SDS_P2;PMS_P1;PMS_P2;Temp;Humidity;BMP_temperature;BMP_pressure;BME280_temperature;BME280_humidity;BME280_pressure;Samples;Min_cycle;Max_cycle;Signal;HPM_P1;HPM_P2
2021/09/14 00:00:33;;;;;;;;;;;13.50;99.90;;;;;;1868254;76;21036;-68
2021/09/14 00:03:00;;;;;;;;;;;13.40;99.90;;;;;;1883273;75;20164;-68
2021/09/14 00:05:26;;;;;;;;;;;13.30;99.90;;;;;;1868149;76;20215;-68
2021/09/14 00:07:53;;;;;;;;;;;13.30;99.90;;;;;;1869726;76;20451;-68
2021/09/14 00:10:20;;;;;;;;;;;13.30;99.90;;;;;;1868541;77;20331;-68
2021/09/14 00:12:47;;;;;;;;;;;13.30;99.90;;;;;;1868429;75;20542;-68
2021/09/14 00:15:14;;;;;;;;;;;13.20;99.90;;;;;;1866362;76;20175;-68
2021/09/14 00:17:41;;;;;;;;;;;13.20;99.90;;;;;;1860052;75;20200;-68
2021/09/14 00:20:08;;;;;;;;;;;13.20;99.90;;;;;;1841184;78;20179;-68
2021/09/14 00:22:35;;;;;;;;;;;13.10;99.90;;;;;;1873444;75;20470;-68
2021/09/14 00:25:01;;;;;;;;;;;13.10;99.90;;;;;;1872061;75;20216;-68
2021/09/14 00:27:28;;;;;;;;;;;13.00;99.90;;;;;;1873958;77;20938;-68
2021/09/14 00:29:55;;;;;;;;;;;13.10;99.90;;;;;;1873166;76;20176;-68
2021/09/14 00:32:22;;;;;;;;;;;13.00;99.90;;;;;;1871771;75;20513;-69
2021/09/14 00:34:49;;;;;;;;;;;13.00;99.90;;;;;;1902075;75;20151;-68
2021/09/14 00:37:15;;;;;;;;;;;13.10;99.90;;;;;;1868254;76;20208;-68
2021/09/14 00:39:42;;;;;;;;;;;13.00;99.90;;;;;;1868358;77;20172;-68
2021/09/14 00:42:09;;;;;;;;;;;13.10;99.90;;;;;;1873377;75;20156;-68
2021/09/14 00:44:36;;;;;;;;;;;13.20;99.90;;;;;;1871893;75;20200;-68
2021/09/14 00:47:03;;;;;;;;;;;13.00;99.90;;;;;;1871807;76;20113;-68
2021/09/14 00:49:30;;;;;;;;;;;13.00;99.90;;;;;;1871836;76;20180;-68
2021/09/14 00:51:57;;;;;;;;;;;13.00;99.90;;;;;;1872225;77;20443;-68
2021/09/14 00:54:24;;;;;;;;;;;12.90;99.90;;;;;;1872281;75;20517;-68
2021/09/14 00:56:51;;;;;;;;;;;12.80;99.90;;;;;;1871923;76;20169;-68
2021/09/14 00:59:18;;;;;;;;;;;12.80;99.90;;;;;;1871336;76;20114;-68
2021/09/14 01:01:44;;;;;;;;;;;12.80;99.90;;;;;;1875768;75;20166;-68
2021/09/14 01:04:11;;;;;;;;;;;12.70;99.90;;;;;;1873506;75;20150;-68
2021/09/14 01:06:38;;;;;;;;;;;12.70;99.90;;;;;;1874759;76;20909;-68
2021/09/14 01:09:05;;;;;;;;;;;12.80;99.90;;;;;;1874037;76;20207;-68
2021/09/14 01:11:32;;;;;;;;;;;12.90;99.90;;;;;;1859650;76;20178;-67
2021/09/14 01:14:03;;;;;;;;;;;12.80;99.90;;;;;;1872824;75;20176;-67
2021/09/14 01:16:31;;;;;;;;;;;12.70;99.90;;;;;;1871333;76;20129;-68
2021/09/14 01:18:59;;;;;;;;;;;12.70;99.90;;;;;;1886488;75;20123;-68
2021/09/14 01:21:25;;;;;;;;;;;12.70;99.90;;;;;;1879590;75;20185;-68
2021/09/14 01:23:52;;;;;;;;;;;12.70;99.90;;;;;;1872723;75;20171;-68
2021/09/14 01:26:19;;;;;;;;;;;12.80;99.90;;;;;;1877051;75;20192;-68
2021/09/14 01:28:46;;;;;;;;;;;12.70;99.90;;;;;;1865404;76;20220;-67
2021/09/14 01:31:13;;;;;;;;;;;12.60;99.90;;;;;;1843030;76;20162;-68
2021/09/14 01:33:39;;;;;;;;;;;12.60;99.90;;;;;;1870960;75;20224;-68
2021/09/14 01:36:06;;;;;;;;;;;12.60;99.90;;;;;;1872137;76;20129;-68
2021/09/14 01:38:33;;;;;;;;;;;12.60;99.90;;;;;;1870924;76;20189;-68
2021/09/14 01:41:00;;;;;;;;;;;12.60;99.90;;;;;;1871344;76;20180;-68
2021/09/14 01:43:27;;;;;;;;;;;12.50;99.90;;;;;;1881722;75;20109;-68
2021/09/14 01:45:53;;;;;;;;;;;12.50;99.90;;;;;;1869506;76;20174;-68
2021/09/14 01:48:20;;;;;;;;;;;12.50;99.90;;;;;;1869963;76;20106;-68
2021/09/14 01:50:47;;;;;;;;;;;12.50;99.90;;;;;;1893167;75;20128;-68
2021/09/14 01:53:14;;;;;;;;;;;12.50;99.90;;;;;;1872931;75;20434;-68
2021/09/14 01:55:41;;;;;;;;;;;12.50;99.90;;;;;;1886912;75;20131;-68
2021/09/14 01:58:08;;;;;;;;;;;12.50;99.90;;;;;;1863021;76;20174;-68
2021/09/14 02:00:38;;;;;;;;;;;12.60;99.90;;;;;;1846399;76;20544;-68
2021/09/14 02:03:23;;;;;;;;;;;12.40;99.90;;;;;;1875146;75;20125;-68
2021/09/14 02:06:06;;;;;;;;;;;12.40;99.90;;;;;;1872643;75;20239;-68
2021/09/14 02:30:08;;;;;;;;;;;12.40;99.90;;;;;;1875760;75;20219;-68
2021/09/14 02:59:38;;;;;;;;;;;12.10;99.90;;;;;;1889536;76;20429;-67
2021/09/14 03:02:05;;;;;;;;;;;12.30;99.90;;;;;;1888259;76;20230;-66
2021/09/14 03:04:32;;;;;;;;;;;12.30;99.90;;;;;;1882636;75;20204;-67
2021/09/14 03:06:59;;;;;;;;;;;12.30;99.90;;;;;;1867513;76;20205;-67
2021/09/14 03:09:26;;;;;;;;;;;12.20;99.90;;;;;;1877428;76;20201;-67
2021/09/14 03:11:53;;;;;;;;;;;12.10;99.90;;;;;;1877801;76;20109;-67
2021/09/14 03:14:19;;;;;;;;;;;12.20;99.90;;;;;;1889286;75;20175;-67
2021/09/14 03:16:46;;;;;;;;;;;12.10;99.90;;;;;;1885865;76;20275;-67
2021/09/14 03:19:13;;;;;;;;;;;12.00;99.90;;;;;;1853505;76;20151;-67
2021/09/14 03:21:40;;;;;;;;;;;12.00;99.90;;;;;;1852791;76;20240;-67
2021/09/14 03:24:07;;;;;;;;;;;12.00;99.90;;;;;;1861908;76;20166;-67
2021/09/14 03:26:33;;;;;;;;;;;12.00;99.90;;;;;;1871721;76;20407;-67
2021/09/14 03:29:00;;;;;;;;;;;12.00;99.90;;;;;;1861233;76;20179;-67
2021/09/14 03:31:27;;;;;;;;;;;12.00;99.90;;;;;;1853009;77;20179;-67
2021/09/14 03:33:55;;;;;;;;;;;11.90;99.90;;;;;;1877892;76;20325;-67
2021/09/14 03:36:22;;;;;;;;;;;11.90;99.90;;;;;;1861345;76;20485;-67
2021/09/14 03:38:49;;;;;;;;;;;11.90;99.90;;;;;;1863527;76;20160;-67
2021/09/14 03:41:16;;;;;;;;;;;11.90;99.90;;;;;;1864733;76;20430;-67
2021/09/14 03:43:43;;;;;;;;;;;11.90;99.90;;;;;;1870794;76;20168;-67
2021/09/14 03:46:10;;;;;;;;;;;11.80;99.90;;;;;;1862399;76;20128;-67
2021/09/14 03:48:37;;;;;;;;;;;11.80;99.90;;;;;;1880743;76;20459;-67
2021/09/14 03:51:03;;;;;;;;;;;11.80;99.90;;;;;;1874349;76;20202;-67
2021/09/14 03:53:30;;;;;;;;;;;11.90;99.90;;;;;;1857849;76;20173;-67
2021/09/14 03:55:57;;;;;;;;;;;11.80;99.90;;;;;;1841331;76;20491;-67
2021/09/14 03:58:24;;;;;;;;;;;11.90;99.90;;;;;;1862226;76;20117;-67
2021/09/14 04:00:52;;;;;;;;;;;11.80;99.90;;;;;;1870811;75;20390;-67
2021/09/14 04:03:35;;;;;;;;;;;11.70;99.90;;;;;;1866556;76;20183;-67
2021/09/14 04:11:17;;;;;;;;;;;11.80;99.90;;;;;;1853515;77;20176;-68
2021/09/14 04:13:44;;;;;;;;;;;11.80;99.90;;;;;;1854949;76;20113;-68
2021/09/14 04:16:11;;;;;;;;;;;11.80;99.90;;;;;;1865763;76;20241;-68
2021/09/14 04:18:37;;;;;;;;;;;11.80;99.90;;;;;;1861621;76;20223;-68
2021/09/14 04:21:05;;;;;;;;;;;11.80;99.90;;;;;;1872561;76;20255;-68
2021/09/14 04:23:32;;;;;;;;;;;11.80;99.90;;;;;;1874216;76;20214;-68
2021/09/14 04:25:58;;;;;;;;;;;11.70;99.90;;;;;;1870684;76;20124;-68
2021/09/14 04:28:25;;;;;;;;;;;11.90;99.90;;;;;;1862046;76;20186;-68
2021/09/14 04:30:52;;;;;;;;;;;11.70;99.90;;;;;;1861636;76;20182;-68
2021/09/14 04:33:19;;;;;;;;;;;11.70;99.90;;;;;;1863541;76;20545;-68
2021/09/14 04:35:46;;;;;;;;;;;11.80;99.90;;;;;;1857768;76;20299;-68
2021/09/14 04:38:12;;;;;;;;;;;11.70;99.90;;;;;;1867269;76;20446;-68
2021/09/14 04:40:39;;;;;;;;;;;11.70;99.90;;;;;;1858574;76;20109;-68
2021/09/14 04:43:06;;;;;;;;;;;11.60;99.90;;;;;;1860802;76;20489;-68
2021/09/14 04:45:33;;;;;;;;;;;11.60;99.90;;;;;;1860938;76;20121;-68
2021/09/14 04:47:59;;;;;;;;;;;11.50;99.90;;;;;;1866619;76;20608;-68
2021/09/14 04:50:26;;;;;;;;;;;11.50;99.90;;;;;;1863216;76;20171;-68
2021/09/14 04:52:53;;;;;;;;;;;11.50;99.90;;;;;;1861339;76;20129;-68
2021/09/14 04:55:20;;;;;;;;;;;11.70;99.90;;;;;;1861442;77;20242;-67
2021/09/14 04:57:47;;;;;;;;;;;11.60;99.90;;;;;;1867349;76;20287;-68
2021/09/14 05:00:15;;;;;;;;;;;11.60;99.90;;;;;;1870810;76;20128;-68
2021/09/14 05:02:41;;;;;;;;;;;11.70;99.90;;;;;;1849234;76;20147;-68
2021/09/14 05:05:09;;;;;;;;;;;11.60;99.90;;;;;;1855644;76;20187;-68
2021/09/14 05:07:36;;;;;;;;;;;11.70;99.90;;;;;;1862452;76;20275;-68
2021/09/14 05:10:03;;;;;;;;;;;11.60;99.90;;;;;;1843409;78;20202;-68
2021/09/14 05:12:30;;;;;;;;;;;11.70;99.90;;;;;;1858799;76;20113;-68
2021/09/14 05:14:56;;;;;;;;;;;11.60;99.90;;;;;;1874054;76;20168;-68
2021/09/14 05:17:23;;;;;;;;;;;11.50;99.90;;;;;;1873073;76;20175;-68
2021/09/14 05:19:51;;;;;;;;;;;11.60;99.90;;;;;;1874570;76;20121;-68
2021/09/14 05:22:22;;;;;;;;;;;11.60;99.90;;;;;;1868855;76;20156;-68
2021/09/14 05:24:49;;;;;;;;;;;11.80;99.90;;;;;;1874700;76;20205;-68
2021/09/14 05:27:16;;;;;;;;;;;11.80;99.90;;;;;;1868237;76;20450;-68
2021/09/14 05:29:42;;;;;;;;;;;11.60;99.90;;;;;;1872036;76;20218;-68
2021/09/14 05:32:10;;;;;;;;;;;11.60;99.90;;;;;;1880184;76;20471;-68
2021/09/14 05:34:37;;;;;;;;;;;11.60;99.90;;;;;;1853197;77;20180;-67
2021/09/14 05:37:04;;;;;;;;;;;11.60;99.90;;;;;;1857161;76;20168;-67
2021/09/14 05:39:31;;;;;;;;;;;11.70;99.90;;;;;;1860007;76;20529;-67
2021/09/14 05:41:57;;;;;;;;;;;11.90;99.90;;;;;;1858394;76;20209;-67
2021/09/14 05:44:24;;;;;;;;;;;12.00;99.90;;;;;;1854862;76;20390;-67
2021/09/14 05:46:51;;;;;;;;;;;11.90;99.90;;;;;;1866234;75;20179;-67
2021/09/14 05:49:18;;;;;;;;;;;11.80;99.90;;;;;;1863194;75;20157;-68
2021/09/14 05:51:45;;;;;;;;;;;11.80;99.90;;;;;;1857263;75;20443;-68
2021/09/14 05:54:11;;;;;;;;;;;12.00;99.90;;;;;;1853217;76;20175;-68
2021/09/14 05:56:38;;;;;;;;;;;12.00;99.90;;;;;;1868715;75;20518;-68
2021/09/14 05:59:05;;;;;;;;;;;12.20;99.90;;;;;;1864018;76;20221;-68
2021/09/14 06:01:32;;;;;;;;;;;12.20;99.90;;;;;;1861886;76;20489;-68
2021/09/14 06:03:59;;;;;;;;;;;12.30;99.90;;;;;;1866871;75;20278;-68
2021/09/14 06:06:25;;;;;;;;;;;12.40;99.90;;;;;;1861456;76;20484;-68
2021/09/14 06:08:52;;;;;;;;;;;12.40;99.90;;;;;;1867817;75;20213;-67
2021/09/14 06:11:19;;;;;;;;;;;12.60;99.90;;;;;;1866811;75;20191;-68
2021/09/14 06:13:46;;;;;;;;;;;12.60;99.90;;;;;;1873797;76;20418;-67
2021/09/14 06:16:13;;;;;;;;;;;12.80;99.90;;;;;;1871482;75;20214;-66
2021/09/14 06:18:40;;;;;;;;;;;12.90;99.90;;;;;;1872298;75;20231;-66
2021/09/14 06:21:07;;;;;;;;;;;13.00;99.90;;;;;;1875185;76;20209;-66
2021/09/14 06:23:34;;;;;;;;;;;13.00;99.90;;;;;;1870049;75;20203;-68
2021/09/14 06:26:01;;;;;;;;;;;13.10;99.90;;;;;;1862539;76;20428;-67
2021/09/14 06:28:28;;;;;;;;;;;13.20;99.90;;;;;;1857916;75;20212;-68
2021/09/14 06:30:54;;;;;;;;;;;13.20;99.90;;;;;;1876035;75;20422;-65
2021/09/14 06:33:23;;;;;;;;;;;13.30;99.90;;;;;;1856046;75;20131;-66
2021/09/14 06:35:50;;;;;;;;;;;13.30;99.90;;;;;;1877252;75;20188;-66
2021/09/14 06:38:17;;;;;;;;;;;13.40;99.90;;;;;;1870523;75;20414;-66
2021/09/14 06:40:44;;;;;;;;;;;13.40;99.90;;;;;;1872695;76;20109;-67
2021/09/14 06:43:11;;;;;;;;;;;13.50;99.90;;;;;;1868791;76;20171;-66
2021/09/14 06:45:38;;;;;;;;;;;13.60;99.90;;;;;;1868928;76;20235;-66
2021/09/14 06:48:05;;;;;;;;;;;13.60;99.90;;;;;;1868219;76;20195;-68
2021/09/14 06:50:31;;;;;;;;;;;13.70;99.90;;;;;;1860571;76;20190;-66
2021/09/14 06:52:58;;;;;;;;;;;13.80;99.90;;;;;;1865983;76;20132;-66
2021/09/14 06:55:25;;;;;;;;;;;13.90;99.90;;;;;;1870357;76;20177;-66
2021/09/14 06:57:52;;;;;;;;;;;14.00;99.90;;;;;;1864754;76;20118;-67
2021/09/14 07:00:19;;;;;;;;;;;14.00;99.90;;;;;;1869894;76;20164;-67
2021/09/14 07:02:45;;;;;;;;;;;14.10;99.90;;;;;;1877420;76;20473;-67
2021/09/14 07:05:12;;;;;;;;;;;14.10;99.90;;;;;;1871810;76;20202;-67
2021/09/14 07:07:39;;;;;;;;;;;14.20;99.90;;;;;;1874240;76;20160;-67
2021/09/14 07:10:06;;;;;;;;;;;14.30;99.90;;;;;;1853553;76;20160;-67
2021/09/14 07:12:33;;;;;;;;;;;14.30;99.90;;;;;;1878639;76;20175;-67
2021/09/14 07:15:00;;;;;;;;;;;14.40;99.90;;;;;;1862565;76;20239;-65
2021/09/14 07:17:27;;;;;;;;;;;14.40;99.90;;;;;;1866431;76;20198;-67
2021/09/14 07:19:53;;;;;;;;;;;14.50;99.90;;;;;;1841682;78;20170;-66
2021/09/14 07:22:20;;;;;;;;;;;14.50;99.90;;;;;;1875710;76;20176;-67
2021/09/14 07:24:47;;;;;;;;;;;14.60;99.90;;;;;;1872705;77;20136;-67
2021/09/14 07:27:14;;;;;;;;;;;14.70;99.90;;;;;;1874977;76;20186;-66
2021/09/14 07:29:41;;;;;;;;;;;14.80;99.90;;;;;;1877736;76;20113;-67
2021/09/14 07:32:07;;;;;;;;;;;14.80;99.90;;;;;;1858069;76;20183;-66
2021/09/14 07:34:34;;;;;;;;;;;14.90;99.90;;;;;;1860283;76;20256;-66
2021/09/14 07:37:02;;;;;;;;;;;15.00;99.90;;;;;;1876354;76;20179;-66
2021/09/14 07:39:29;;;;;;;;;;;15.00;99.90;;;;;;1873111;76;20117;-66
2021/09/14 07:41:56;;;;;;;;;;;15.00;99.90;;;;;;1872762;77;20172;-66
2021/09/14 07:44:22;;;;;;;;;;;15.10;99.90;;;;;;1868091;76;20258;-65
2021/09/14 07:46:49;;;;;;;;;;;15.20;99.90;;;;;;1868410;76;20121;-66
2021/09/14 07:49:16;;;;;;;;;;;15.20;99.90;;;;;;1877142;76;20312;-66
2021/09/14 07:51:43;;;;;;;;;;;15.30;99.90;;;;;;1859880;76;20135;-65
2021/09/14 07:54:10;;;;;;;;;;;15.40;99.90;;;;;;1870199;76;20136;-65
2021/09/14 07:56:36;;;;;;;;;;;15.50;99.90;;;;;;1876654;76;20221;-66
2021/09/14 07:59:03;;;;;;;;;;;15.60;99.90;;;;;;1866918;76;20228;-66
2021/09/14 08:01:30;;;;;;;;;;;15.60;99.90;;;;;;1853746;76;20251;-66
2021/09/14 08:03:57;;;;;;;;;;;15.70;99.90;;;;;;1859944;76;20227;-66
2021/09/14 08:06:24;;;;;;;;;;;15.80;99.90;;;;;;1866560;75;20213;-66
2021/09/14 08:08:51;;;;;;;;;;;15.80;99.90;;;;;;1869956;76;20199;-66
2021/09/14 08:11:18;;;;;;;;;;;15.90;99.90;;;;;;1868734;76;20463;-66
2021/09/14 08:13:48;;;;;;;;;;;15.90;99.90;;;;;;1865701;76;20298;-66
2021/09/14 08:16:13;;;;;;;;;;;15.90;99.90;;;;;;1861648;76;20515;-66
2021/09/14 08:18:40;;;;;;;;;;;16.10;99.90;;;;;;1866007;76;20273;-66
2021/09/14 08:21:06;;;;;;;;;;;16.00;99.90;;;;;;1865885;76;20294;-66
2021/09/14 08:23:34;;;;;;;;;;;16.10;99.90;;;;;;1868970;76;20252;-67
2021/09/14 08:26:01;;;;;;;;;;;16.10;99.90;;;;;;1863692;76;20905;-67
2021/09/14 08:28:29;;;;;;;;;;;16.20;99.90;;;;;;1858055;76;20398;-66
2021/09/14 08:30:56;;;;;;;;;;;16.20;99.90;;;;;;1858833;76;20232;-66
2021/09/14 08:33:22;;;;;;;;;;;16.30;99.90;;;;;;1858060;76;20213;-66
2021/09/14 08:35:49;;;;;;;;;;;16.30;99.90;;;;;;1861718;76;20223;-66
2021/09/14 08:38:16;;;;;;;;;;;16.30;99.90;;;;;;1862578;76;20169;-66
2021/09/14 08:40:43;;;;;;;;;;;16.40;99.90;;;;;;1866192;76;20223;-66
2021/09/14 08:43:13;;;;;;;;;;;16.40;99.90;;;;;;1854873;76;20253;-66
2021/09/14 08:45:40;;;;;;;;;;;16.50;99.90;;;;;;1867374;76;20231;-66
2021/09/14 08:48:07;;;;;;;;;;;16.50;99.90;;;;;;1861395;76;20373;-66
2021/09/14 08:50:33;;;;;;;;;;;16.60;99.90;;;;;;1859158;76;20192;-66
2021/09/14 08:53:00;;;;;;;;;;;16.70;99.90;;;;;;1857206;76;20261;-67
2021/09/14 08:55:28;;;;;;;;;;;16.70;99.90;;;;;;1861902;76;20172;-67
2021/09/14 08:57:55;;;;;;;;;;;16.80;99.90;;;;;;1855323;76;20408;-66
2021/09/14 09:00:32;;;;;;;;;;;16.80;99.90;;;;;;1855959;76;20177;-66
2021/09/14 09:02:59;;;;;;;;;;;16.90;99.90;;;;;;1866140;76;20203;-66
2021/09/14 09:05:30;;;;;;;;;;;16.90;99.90;;;;;;1864811;76;20211;-66
2021/09/14 09:07:57;;;;;;;;;;;17.10;99.90;;;;;;1848233;76;20168;-66
2021/09/14 09:10:24;;;;;;;;;;;17.00;99.90;;;;;;1862303;76;20176;-66
2021/09/14 09:12:51;;;;;;;;;;;17.10;99.90;;;;;;1856548;76;20131;-66
2021/09/14 09:15:23;;;;;;;;;;;17.10;99.90;;;;;;1862886;76;20189;-66
2021/09/14 09:17:51;;;;;;;;;;;17.30;99.90;;;;;;1861006;76;20171;-65
2021/09/14 09:20:19;;;;;;;;;;;17.30;99.90;;;;;;1859693;76;20490;-66
2021/09/14 09:22:47;;;;;;;;;;;17.60;99.90;;;;;;1863498;76;20175;-66
2021/09/14 09:25:16;;;;;;;;;;;17.60;99.90;;;;;;1860256;76;20535;-66
2021/09/14 09:27:43;;;;;;;;;;;17.50;99.90;;;;;;1863431;76;20175;-66
2021/09/14 09:30:10;;;;;;;;;;;17.80;99.90;;;;;;1859201;76;20510;-66
2021/09/14 09:32:44;;;;;;;;;;;17.70;99.90;;;;;;1855255;76;20210;-66
2021/09/14 09:35:11;;;;;;;;;;;17.90;99.90;;;;;;1853358;76;20175;-66
2021/09/14 09:37:38;;;;;;;;;;;18.00;99.90;;;;;;1861038;76;20288;-66
2021/09/14 09:40:06;;;;;;;;;;;18.10;99.90;;;;;;1859015;76;20213;-66
2021/09/14 09:42:33;;;;;;;;;;;18.20;99.90;;;;;;1859716;76;20241;-66
2021/09/14 09:45:00;;;;;;;;;;;18.20;99.90;;;;;;1872719;76;20117;-66
2021/09/14 09:47:26;;;;;;;;;;;18.20;99.90;;;;;;1859047;76;20188;-66
2021/09/14 09:49:54;;;;;;;;;;;18.30;99.90;;;;;;1867077;76;20391;-66
2021/09/14 09:52:21;;;;;;;;;;;18.40;99.90;;;;;;1870867;76;20321;-66
2021/09/14 09:54:47;;;;;;;;;;;18.70;99.90;;;;;;1860301;76;20498;-66
2021/09/14 09:57:14;;;;;;;;;;;18.70;99.90;;;;;;1863909;76;20117;-66
2021/09/14 09:59:41;;;;;;;;;;;18.70;99.90;;;;;;1865129;76;20477;-66
2021/09/14 10:02:15;;;;;;;;;;;18.80;99.90;;;;;;1861470;76;20168;-66
2021/09/14 10:04:44;;;;;;;;;;;18.90;99.90;;;;;;1862577;76;20117;-66
2021/09/14 10:07:12;;;;;;;;;;;19.00;99.90;;;;;;1864707;76;20851;-66
2021/09/14 10:09:40;;;;;;;;;;;19.10;99.90;;;;;;1864795;76;20225;-66
2021/09/14 10:12:07;;;;;;;;;;;19.30;99.90;;;;;;1857681;76;20505;-66
2021/09/14 10:14:34;;;;;;;;;;;19.30;99.90;;;;;;1863932;76;20463;-67
2021/09/14 10:17:05;;;;;;;;;;;19.40;99.90;;;;;;1864131;76;20121;-67
2021/09/14 10:19:32;;;;;;;;;;;19.40;99.90;;;;;;1867535;76;20219;-73
2021/09/14 10:22:01;;;;;;;;;;;19.60;99.90;;;;;;1865831;76;20164;-67
2021/09/14 10:24:28;;;;;;;;;;;19.60;99.90;;;;;;1865594;76;20283;-67
2021/09/14 10:27:08;;;;;;;;;;;19.80;99.90;;;;;;1862939;76;20491;-68
2021/09/14 10:29:35;;;;;;;;;;;20.00;99.90;;;;;;1861321;76;20393;-68
2021/09/14 10:32:06;;;;;;;;;;;19.90;99.90;;;;;;1860534;76;20999;-68
2021/09/14 10:34:33;;;;;;;;;;;20.00;99.90;;;;;;1864824;76;20375;-69
2021/09/14 10:37:02;;;;;;;;;;;19.90;99.90;;;;;;1861061;76;20191;-68
2021/09/14 10:39:30;;;;;;;;;;;20.10;99.90;;;;;;1864033;76;20183;-68
2021/09/14 10:41:57;;;;;;;;;;;20.10;99.90;;;;;;1859940;76;20254;-68
2021/09/14 10:44:25;;;;;;;;;;;20.20;99.90;;;;;;1864015;76;20169;-68
2021/09/14 10:46:53;;;;;;;;;;;20.10;99.90;;;;;;1864685;76;20162;-67
2021/09/14 10:49:20;;;;;;;;;;;20.20;99.90;;;;;;1865940;76;20203;-68
2021/09/14 10:51:57;;;;;;;;;;;20.50;99.90;;;;;;1861962;76;20160;-68
2021/09/14 10:54:23;;;;;;;;;;;20.40;99.90;;;;;;1859833;76;20130;-68
2021/09/14 10:56:52;;;;;;;;;;;20.50;99.90;;;;;;1861776;76;20156;-68
2021/09/14 10:59:19;;;;;;;;;;;20.40;99.90;;;;;;1859643;76;20200;-68
2021/09/14 11:01:47;;;;;;;;;;;20.70;99.90;;;;;;1859595;76;20225;-68
2021/09/14 11:04:14;;;;;;;;;;;20.60;99.90;;;;;;1868753;76;20125;-68
2021/09/14 11:06:42;;;;;;;;;;;20.80;99.90;;;;;;1864628;76;20212;-68
2021/09/14 11:09:09;;;;;;;;;;;21.00;99.90;;;;;;1867636;76;20191;-68
2021/09/14 11:11:36;;;;;;;;;;;21.00;99.90;;;;;;1867659;76;20226;-68
2021/09/14 11:14:03;;;;;;;;;;;21.30;99.90;;;;;;1857728;76;20260;-68
2021/09/14 11:16:30;;;;;;;;;;;21.30;99.90;;;;;;1862704;76;20128;-68
2021/09/14 11:19:00;;;;;;;;;;;21.40;99.90;;;;;;1861594;76;20294;-68
2021/09/14 11:21:27;;;;;;;;;;;21.50;99.90;;;;;;1861700;76;20190;-68
2021/09/14 11:23:53;;;;;;;;;;;21.40;99.90;;;;;;1861887;76;20179;-68
2021/09/14 11:26:21;;;;;;;;;;;21.60;99.90;;;;;;1864543;76;20133;-68
2021/09/14 11:28:55;;;;;;;;;;;21.50;99.90;;;;;;1863314;76;20216;-68
2021/09/14 11:31:22;;;;;;;;;;;21.50;99.90;;;;;;1864245;76;20174;-68
2021/09/14 11:33:49;;;;;;;;;;;21.80;99.90;;;;;;1862229;76;20121;-68
2021/09/14 11:36:15;;;;;;;;;;;21.90;99.90;;;;;;1858354;76;20179;-68
2021/09/14 11:38:42;;;;;;;;;;;22.00;99.90;;;;;;1860017;76;20194;-67
2021/09/14 11:41:10;;;;;;;;;;;22.10;99.90;;;;;;1862994;76;20830;-68
2021/09/14 11:43:41;;;;;;;;;;;22.00;99.90;;;;;;1868231;76;21182;-68
2021/09/14 11:46:13;;;;;;;;;;;22.10;99.90;;;;;;1860078;76;20197;-68
2021/09/14 11:48:41;;;;;;;;;;;22.20;99.90;;;;;;1864575;76;20330;-68
2021/09/14 11:51:09;;;;;;;;;;;22.20;99.90;;;;;;1861209;76;20205;-68
2021/09/14 11:53:36;;;;;;;;;;;22.30;99.90;;;;;;1854021;76;20184;-68
2021/09/14 11:56:11;;;;;;;;;;;22.40;99.90;;;;;;1862741;76;20351;-68
2021/09/14 11:58:39;;;;;;;;;;;22.50;99.90;;;;;;1858009;76;20524;-68
2021/09/14 12:01:10;;;;;;;;;;;22.50;99.90;;;;;;1863500;76;20206;-67
2021/09/14 12:03:48;;;;;;;;;;;22.60;99.90;;;;;;1862622;76;20203;-67
2021/09/14 12:06:16;;;;;;;;;;;22.80;99.90;;;;;;1860389;76;20245;-67
2021/09/14 12:08:43;;;;;;;;;;;22.80;99.90;;;;;;1859403;76;20125;-67
2021/09/14 12:11:11;;;;;;;;;;;22.70;99.90;;;;;;1871225;76;20213;-67
2021/09/14 12:13:38;;;;;;;;;;;22.80;99.90;;;;;;1866267;76;20194;-67
2021/09/14 12:16:08;;;;;;;;;;;22.70;99.90;;;;;;1863918;76;20500;-68
2021/09/14 12:18:37;;;;;;;;;;;22.60;99.90;;;;;;1866694;76;20167;-67
2021/09/14 12:21:04;;;;;;;;;;;23.00;99.90;;;;;;1865790;76;20216;-67
2021/09/14 12:23:31;;;;;;;;;;;23.20;99.90;;;;;;1864730;76;20176;-67
2021/09/14 12:25:58;;;;;;;;;;;23.50;99.90;;;;;;1862689;76;20161;-67
2021/09/14 12:28:25;;;;;;;;;;;23.60;99.90;;;;;;1865146;76;20222;-67
2021/09/14 12:30:52;;;;;;;;;;;23.60;99.90;;;;;;1862062;76;20117;-68
2021/09/14 12:33:19;;;;;;;;;;;23.80;99.90;;;;;;1866151;76;20156;-67
2021/09/14 12:35:45;;;;;;;;;;;23.90;99.90;;;;;;1863897;76;20190;-67
2021/09/14 12:38:12;;;;;;;;;;;23.70;99.90;;;;;;1861194;76;20214;-67
2021/09/14 12:40:39;;;;;;;;;;;24.00;99.90;;;;;;1863581;76;20221;-67
2021/09/14 12:43:06;;;;;;;;;;;23.90;99.90;;;;;;1864488;76;20120;-67
2021/09/14 12:45:32;;;;;;;;;;;24.00;99.90;;;;;;1862797;76;20405;-67
2021/09/14 12:47:59;;;;;;;;;;;23.90;99.90;;;;;;1866074;76;20235;-66
2021/09/14 12:50:26;;;;;;;;;;;24.10;99.90;;;;;;1860814;76;20501;-66
2021/09/14 12:52:53;;;;;;;;;;;24.20;99.90;;;;;;1863407;76;20254;-67
2021/09/14 12:55:20;;;;;;;;;;;24.20;99.90;;;;;;1860351;76;21068;-67
2021/09/14 12:57:47;;;;;;;;;;;24.20;99.90;;;;;;1860553;76;20125;-67
2021/09/14 13:00:14;;;;;;;;;;;24.30;99.90;;;;;;1861256;76;20673;-67
2021/09/14 13:02:41;;;;;;;;;;;24.30;99.90;;;;;;1862891;76;20125;-67
2021/09/14 13:05:08;;;;;;;;;;;24.00;99.90;;;;;;1870764;75;20187;-67
2021/09/14 13:07:35;;;;;;;;;;;23.90;99.90;;;;;;1861241;76;20284;-67
2021/09/14 13:10:02;;;;;;;;;;;23.90;99.90;;;;;;1867870;76;20229;-67
2021/09/14 13:12:32;;;;;;;;;;;23.70;99.90;;;;;;1866586;76;20121;-67
2021/09/14 13:17:42;;;;;;;;;;;23.70;99.90;;;;;;1864424;76;20232;-67
2021/09/14 13:20:10;;;;;;;;;;;23.70;99.90;;;;;;1856647;76;20316;-67
2021/09/14 13:22:36;;;;;;;;;;;23.70;99.90;;;;;;1855648;76;20187;-67
2021/09/14 13:25:04;;;;;;;;;;;23.80;99.90;;;;;;1859592;76;20165;-67
2021/09/14 13:27:31;;;;;;;;;;;23.90;99.90;;;;;;1863850;76;20419;-67
2021/09/14 13:29:57;;;;;;;;;;;23.80;99.90;;;;;;1864344;76;20167;-67
2021/09/14 13:32:24;;;;;;;;;;;24.00;99.90;;;;;;1864191;76;20195;-67
2021/09/14 13:34:51;;;;;;;;;;;23.90;99.90;;;;;;1857800;76;20179;-67
2021/09/14 13:37:18;;;;;;;;;;;23.90;99.90;;;;;;1867220;76;20393;-67
2021/09/14 13:39:45;;;;;;;;;;;24.00;99.90;;;;;;1859680;76;20142;-67
2021/09/14 13:42:13;;;;;;;;;;;24.30;99.90;;;;;;1859791;76;20187;-67
2021/09/14 13:47:21;;;;;;;;;;;24.70;99.90;;;;;;1865629;76;20993;-67
2021/09/14 13:49:48;;;;;;;;;;;24.60;99.90;;;;;;1862280;76;20183;-67
2021/09/14 13:52:15;;;;;;;;;;;24.70;99.90;;;;;;1863624;76;20162;-67
2021/09/14 13:54:42;;;;;;;;;;;24.80;99.90;;;;;;1866202;76;20137;-67
2021/09/14 13:57:09;;;;;;;;;;;24.90;99.90;;;;;;1861868;76;20170;-67
2021/09/14 13:59:36;;;;;;;;;;;24.90;99.90;;;;;;1860383;76;20126;-67
2021/09/14 14:02:03;;;;;;;;;;;24.80;99.90;;;;;;1856655;76;20209;-69
2021/09/14 14:04:30;;;;;;;;;;;25.00;99.90;;;;;;1858818;76;20105;-67
2021/09/14 14:06:57;;;;;;;;;;;25.10;99.90;;;;;;1861437;76;20513;-67
2021/09/14 14:09:24;;;;;;;;;;;25.00;99.90;;;;;;1864974;76;20497;-67
2021/09/14 14:11:50;;;;;;;;;;;25.10;99.90;;;;;;1860742;76;20128;-67
2021/09/14 14:14:17;;;;;;;;;;;25.30;99.90;;;;;;1860729;76;20484;-67
2021/09/14 14:16:44;;;;;;;;;;;25.50;99.90;;;;;;1863269;76;20127;-68
2021/09/14 14:19:11;;;;;;;;;;;25.50;99.90;;;;;;1862839;76;20572;-68
2021/09/14 14:21:38;;;;;;;;;;;25.50;99.90;;;;;;1866417;76;20180;-68
2021/09/14 14:24:05;;;;;;;;;;;25.60;99.90;;;;;;1862632;76;20186;-68
2021/09/14 14:26:31;;;;;;;;;;;25.70;99.90;;;;;;1865178;76;20175;-72
2021/09/14 14:28:58;;;;;;;;;;;25.70;99.90;;;;;;1857312;76;20238;-69
2021/09/14 14:31:25;;;;;;;;;;;25.70;99.90;;;;;;1862675;76;20224;-68
2021/09/14 14:33:52;;;;;;;;;;;25.70;99.90;;;;;;1850460;76;20181;-68
2021/09/14 14:36:19;;;;;;;;;;;25.80;99.90;;;;;;1843364;76;20127;-69
2021/09/14 14:38:47;;;;;;;;;;;25.90;99.90;;;;;;1875282;76;20140;-69
2021/09/14 14:41:14;;;;;;;;;;;25.90;99.90;;;;;;1874914;76;20462;-70
2021/09/14 14:43:41;;;;;;;;;;;26.00;99.90;;;;;;1875176;76;20128;-68
2021/09/14 14:46:09;;;;;;;;;;;25.90;99.90;;;;;;1876536;76;20236;-69
2021/09/14 14:48:36;;;;;;;;;;;25.70;99.90;;;;;;1884050;76;20221;-68
2021/09/14 14:51:03;;;;;;;;;;;25.50;99.90;;;;;;1884132;76;20147;-69
2021/09/14 14:53:30;;;;;;;;;;;25.30;99.90;;;;;;1883871;76;20195;-68
2021/09/14 14:55:57;;;;;;;;;;;25.30;99.90;;;;;;1883685;76;20162;-71
2021/09/14 14:58:23;;;;;;;;;;;25.20;99.90;;;;;;1883579;76;20248;-71
2021/09/14 15:00:50;;;;;;;;;;;25.00;99.90;;;;;;1877833;76;20187;-71
2021/09/14 15:03:18;;;;;;;;;;;24.90;99.90;;;;;;1874808;76;20124;-68
2021/09/14 15:05:45;;;;;;;;;;;24.80;99.90;;;;;;1874840;76;20160;-68
2021/09/14 15:08:12;;;;;;;;;;;24.70;99.90;;;;;;1874736;76;20184;-68
2021/09/14 15:10:39;;;;;;;;;;;24.60;99.90;;;;;;1881844;75;20194;-68
2021/09/14 15:13:05;;;;;;;;;;;24.60;99.90;;;;;;1882040;76;20183;-68
2021/09/14 15:15:32;;;;;;;;;;;24.60;99.90;;;;;;1876428;76;20206;-68